createdAt,value
2017-12-09T00:00:29.641Z,91.00
2017-12-09T00:01:32.243Z,91.00
2017-12-09T00:02:34.729Z,91.10
2017-12-09T00:03:38.191Z,91.10
2017-12-09T00:04:40.691Z,91.10
2017-12-09T00:05:43.174Z,91.10
2017-12-09T00:06:45.637Z,91.00
2017-12-09T00:07:49.142Z,91.00
2017-12-09T00:08:51.708Z,91.00
2017-12-09T00:09:54.239Z,91.00
2017-12-09T00:10:56.697Z,90.90
2017-12-09T00:11:59.239Z,90.90
2017-12-09T00:13:01.696Z,90.90
2017-12-09T00:14:04.181Z,90.90
2017-12-09T00:15:07.433Z,90.80
2017-12-09T00:16:09.951Z,90.80
2017-12-09T00:17:12.467Z,90.90
2017-12-09T00:18:14.962Z,90.90
2017-12-09T00:19:17.425Z,90.90
2017-12-09T00:20:20.886Z,91.10
2017-12-09T00:21:23.375Z,91.00
2017-12-09T00:22:37.870Z,90.90
2017-12-09T00:23:41.293Z,90.90
2017-12-09T00:24:43.779Z,90.80
2017-12-09T00:25:46.285Z,90.80
2017-12-09T00:26:48.771Z,90.80
2017-12-09T00:27:51.249Z,90.80
2017-12-09T00:28:53.745Z,91.10
2017-12-09T00:29:57.002Z,90.80
2017-12-09T00:30:59.489Z,90.80
2017-12-09T00:32:02.766Z,90.70
2017-12-09T00:33:05.241Z,90.70
2017-12-09T00:34:08.492Z,90.70
2017-12-09T00:35:11.297Z,90.60
2017-12-09T00:36:14.560Z,90.70
2017-12-09T00:37:17.049Z,90.60
2017-12-09T00:38:20.285Z,90.60
2017-12-09T00:39:22.776Z,90.60
2017-12-09T00:40:25.628Z,90.60
2017-12-09T00:41:28.117Z,90.60
2017-12-09T00:42:30.611Z,90.60
2017-12-09T00:43:34.149Z,90.60
2017-12-09T00:44:36.634Z,90.60
2017-12-09T00:45:39.140Z,90.50
2017-12-09T00:46:41.600Z,90.60
2017-12-09T00:47:44.102Z,90.60
2017-12-09T00:48:46.568Z,90.60
2017-12-09T00:49:49.044Z,90.60
2017-12-09T00:50:51.525Z,90.60
2017-12-09T00:51:53.997Z,90.60
2017-12-09T00:52:56.511Z,90.60
2017-12-09T00:53:58.998Z,90.60
2017-12-09T00:55:01.476Z,90.60
2017-12-09T00:56:03.946Z,90.60
2017-12-09T00:57:06.708Z,90.60
2017-12-09T00:58:09.193Z,90.50
2017-12-09T00:59:12.973Z,90.50
2017-12-09T01:00:15.492Z,90.50
2017-12-09T01:01:17.952Z,90.50
2017-12-09T01:02:20.440Z,90.50
2017-12-09T01:03:24.881Z,90.50
2017-12-09T01:04:27.351Z,90.50
2017-12-09T01:05:30.604Z,90.50
2017-12-09T01:06:33.088Z,90.50
2017-12-09T01:07:35.798Z,90.60
2017-12-09T01:08:39.097Z,90.60
2017-12-09T01:09:41.844Z,90.60
2017-12-09T01:10:45.075Z,90.60
2017-12-09T01:11:47.585Z,90.60
2017-12-09T01:12:50.073Z,90.60
2017-12-09T01:13:52.550Z,90.60
2017-12-09T01:14:55.034Z,90.60
2017-12-09T01:16:10.462Z,90.60
2017-12-09T01:17:25.953Z,90.70
2017-12-09T01:18:41.384Z,90.70
2017-12-09T01:19:43.861Z,90.60
2017-12-09T01:20:47.099Z,90.90
2017-12-09T01:21:49.573Z,90.60
2017-12-09T01:22:52.074Z,90.70
2017-12-09T01:23:55.320Z,90.60
2017-12-09T01:24:57.805Z,90.60
2017-12-09T01:26:00.411Z,90.60
2017-12-09T01:27:03.840Z,90.90
2017-12-09T01:28:06.321Z,90.60
2017-12-09T01:29:08.786Z,90.70
2017-12-09T01:30:11.459Z,90.60
2017-12-09T01:31:13.935Z,90.60
2017-12-09T01:32:17.181Z,90.60
2017-12-09T01:33:19.653Z,90.60
2017-12-09T01:34:22.185Z,90.60
2017-12-09T01:35:25.410Z,90.40
2017-12-09T01:36:27.894Z,90.40
2017-12-09T01:37:31.136Z,90.50
2017-12-09T01:38:33.611Z,90.50
2017-12-09T01:39:36.078Z,90.50
2017-12-09T01:40:38.567Z,90.50
2017-12-09T01:41:41.268Z,90.50
2017-12-09T01:42:43.756Z,90.60
2017-12-09T01:43:46.223Z,90.50
2017-12-09T01:44:48.717Z,90.50
2017-12-09T01:45:51.192Z,90.50
2017-12-09T01:46:54.441Z,90.60
2017-12-09T01:47:56.916Z,90.60
2017-12-09T01:48:59.427Z,90.50
2017-12-09T01:50:02.030Z,90.50
2017-12-09T01:51:04.531Z,90.40
2017-12-09T01:52:07.277Z,90.40
2017-12-09T01:53:09.758Z,90.30
2017-12-09T01:54:12.248Z,90.30
2017-12-09T01:55:15.482Z,90.70
2017-12-09T01:56:18.979Z,90.30
2017-12-09T01:57:21.444Z,90.40
2017-12-09T01:58:23.922Z,90.30
2017-12-09T01:59:26.382Z,90.20
2017-12-09T02:00:28.853Z,90.30
2017-12-09T02:01:31.371Z,90.30
2017-12-09T02:02:33.841Z,90.30
2017-12-09T02:03:36.306Z,90.30
2017-12-09T02:04:38.798Z,90.30
2017-12-09T02:05:41.432Z,90.30
2017-12-09T02:06:43.993Z,90.30
2017-12-09T02:07:46.468Z,90.40
2017-12-09T02:08:48.947Z,90.40
2017-12-09T02:09:51.410Z,90.20
2017-12-09T02:10:54.101Z,90.20
2017-12-09T02:11:56.579Z,90.10
2017-12-09T02:12:59.071Z,90.20
2017-12-09T02:14:02.313Z,90.10
2017-12-09T02:15:04.836Z,90.10
2017-12-09T02:16:07.284Z,90.20
2017-12-09T02:17:11.576Z,90.20
2017-12-09T02:18:14.047Z,90.10
2017-12-09T02:19:19.675Z,90.20
2017-12-09T02:20:22.170Z,90.10
2017-12-09T02:21:24.661Z,90.10
2017-12-09T02:22:27.156Z,90.10
2017-12-09T02:23:29.652Z,90.50
2017-12-09T02:24:32.908Z,90.30
2017-12-09T02:25:35.385Z,90.20
2017-12-09T02:26:37.857Z,90.30
2017-12-09T02:27:41.109Z,90.60
2017-12-09T02:28:43.653Z,90.20
2017-12-09T02:29:46.117Z,90.20
2017-12-09T02:30:59.242Z,90.10
2017-12-09T02:32:01.717Z,90.10
2017-12-09T02:33:04.195Z,90.10
2017-12-09T02:34:06.676Z,90.00
2017-12-09T02:35:09.963Z,90.00
2017-12-09T02:36:13.202Z,89.90
2017-12-09T02:37:15.709Z,90.00
2017-12-09T02:38:18.186Z,89.90
2017-12-09T02:39:21.433Z,90.00
2017-12-09T02:40:26.905Z,90.00
2017-12-09T02:41:30.165Z,90.00
2017-12-09T02:42:34.229Z,90.00
2017-12-09T02:43:36.679Z,90.00
2017-12-09T02:44:39.168Z,90.10
2017-12-09T02:45:41.664Z,90.10
2017-12-09T02:46:44.173Z,90.10
2017-12-09T02:47:46.674Z,90.40
2017-12-09T02:48:49.138Z,90.20
2017-12-09T02:49:51.628Z,90.20
2017-12-09T02:50:57.565Z,90.10
2017-12-09T02:52:00.034Z,90.10
2017-12-09T02:53:02.530Z,89.90
2017-12-09T02:54:05.010Z,90.00
2017-12-09T02:55:07.494Z,89.90
2017-12-09T02:56:10.009Z,89.60
2017-12-09T02:57:13.270Z,89.50
2017-12-09T02:58:15.749Z,89.40
2017-12-09T02:59:18.240Z,89.30
2017-12-09T03:00:21.144Z,90.00
2017-12-09T03:01:23.605Z,89.50
2017-12-09T03:02:26.087Z,89.60
2017-12-09T03:03:28.639Z,89.90
2017-12-09T03:04:32.029Z,89.70
2017-12-09T03:05:34.499Z,89.50
2017-12-09T03:06:36.996Z,89.70
2017-12-09T03:07:39.467Z,89.60
2017-12-09T03:08:41.954Z,89.40
2017-12-09T03:09:44.447Z,89.40
2017-12-09T03:10:46.923Z,89.60
2017-12-09T03:11:49.397Z,89.50
2017-12-09T03:12:51.869Z,89.60
2017-12-09T03:13:54.368Z,89.70
2017-12-09T03:14:57.609Z,90.00
2017-12-09T03:16:00.064Z,89.90
2017-12-09T03:17:02.539Z,89.80
2017-12-09T03:18:05.004Z,89.80
2017-12-09T03:19:08.482Z,89.80
2017-12-09T03:20:11.024Z,89.80
2017-12-09T03:21:13.533Z,90.00
2017-12-09T03:22:16.002Z,90.10
2017-12-09T03:23:18.488Z,90.00
2017-12-09T03:24:20.983Z,89.90
2017-12-09T03:25:24.239Z,89.80
2017-12-09T03:26:26.709Z,89.70
2017-12-09T03:27:29.365Z,89.30
2017-12-09T03:28:31.844Z,89.70
2017-12-09T03:29:34.328Z,89.60
2017-12-09T03:30:37.608Z,89.90
2017-12-09T03:31:40.847Z,89.80
2017-12-09T03:32:43.309Z,89.80
2017-12-09T03:33:45.791Z,89.60
2017-12-09T03:34:48.287Z,90.00
2017-12-09T03:35:51.557Z,90.00
2017-12-09T03:36:54.030Z,90.00
2017-12-09T03:37:56.511Z,89.80
2017-12-09T03:38:59.773Z,89.70
2017-12-09T03:40:03.028Z,89.60
2017-12-09T03:41:05.524Z,89.60
2017-12-09T03:42:08.781Z,90.00
2017-12-09T03:43:11.264Z,89.20
2017-12-09T03:44:13.752Z,89.30
2017-12-09T03:45:16.993Z,89.60
2017-12-09T03:46:20.463Z,89.60
2017-12-09T03:47:22.932Z,89.50
2017-12-09T03:48:25.730Z,89.30
2017-12-09T03:49:28.184Z,89.50
2017-12-09T03:50:30.647Z,89.50
2017-12-09T03:51:33.144Z,89.60
2017-12-09T03:52:38.327Z,89.80
2017-12-09T03:53:40.810Z,89.60
2017-12-09T03:54:43.281Z,89.70
2017-12-09T03:55:45.754Z,89.70
2017-12-09T03:56:48.582Z,89.80
2017-12-09T03:57:51.064Z,89.70
2017-12-09T03:58:53.531Z,89.60
2017-12-09T03:59:56.009Z,89.60
2017-12-09T04:00:59.100Z,89.90
2017-12-09T04:02:01.584Z,90.00
2017-12-09T04:03:04.821Z,90.00
2017-12-09T04:04:07.365Z,90.00
2017-12-09T04:05:10.907Z,89.60
2017-12-09T04:06:13.392Z,89.60
2017-12-09T04:07:16.770Z,89.50
2017-12-09T04:08:20.021Z,89.60
2017-12-09T04:09:22.491Z,89.50
2017-12-09T04:10:25.001Z,89.40
2017-12-09T04:11:27.485Z,89.50
2017-12-09T04:12:29.981Z,89.50
2017-12-09T04:13:32.456Z,89.40
2017-12-09T04:14:34.956Z,89.40
2017-12-09T04:15:38.199Z,89.10
2017-12-09T04:16:40.667Z,89.10
2017-12-09T04:17:43.954Z,89.60
2017-12-09T04:18:46.436Z,89.20
2017-12-09T04:19:49.693Z,89.00
2017-12-09T04:20:52.182Z,89.00
2017-12-09T04:21:55.452Z,89.20
2017-12-09T04:22:57.921Z,89.10
2017-12-09T04:24:00.420Z,89.10
2017-12-09T04:25:02.926Z,89.20
2017-12-09T04:26:05.393Z,89.00
2017-12-09T04:27:07.895Z,89.10
2017-12-09T04:28:11.133Z,88.10
2017-12-09T04:29:13.612Z,88.10
2017-12-09T04:30:16.079Z,88.40
2017-12-09T04:31:18.599Z,88.10
2017-12-09T04:32:21.078Z,88.30
2017-12-09T04:33:23.549Z,88.40
2017-12-09T04:34:26.051Z,88.20
2017-12-09T04:35:29.518Z,88.50
2017-12-09T04:36:31.997Z,88.10
2017-12-09T04:37:34.477Z,88.10
2017-12-09T04:38:36.961Z,88.10
2017-12-09T04:39:40.187Z,87.50
2017-12-09T04:40:42.669Z,87.40
2017-12-09T04:41:46.139Z,87.20
2017-12-09T04:42:48.613Z,87.30
2017-12-09T04:43:51.084Z,87.50
2017-12-09T04:44:53.569Z,87.20
2017-12-09T04:45:56.040Z,87.40
2017-12-09T04:46:58.528Z,87.20
2017-12-09T04:48:01.026Z,87.10
2017-12-09T04:49:03.603Z,86.90
2017-12-09T04:50:06.076Z,87.20
2017-12-09T04:51:08.548Z,87.50
2017-12-09T04:52:11.008Z,87.20
2017-12-09T04:53:13.510Z,86.90
2017-12-09T04:54:16.774Z,86.70
2017-12-09T04:55:19.343Z,86.70
2017-12-09T04:56:22.826Z,86.20
2017-12-09T04:57:25.312Z,86.30
2017-12-09T04:58:28.557Z,86.80
2017-12-09T04:59:31.172Z,86.80
2017-12-09T05:00:33.634Z,87.20
2017-12-09T05:01:36.128Z,87.20
2017-12-09T05:02:38.611Z,87.00
2017-12-09T05:03:41.087Z,87.30
2017-12-09T05:04:43.540Z,87.50
2017-12-09T05:05:46.009Z,87.20
2017-12-09T05:06:48.473Z,87.70
2017-12-09T05:07:50.968Z,87.70
2017-12-09T05:08:54.217Z,87.70
2017-12-09T05:09:56.685Z,87.70
2017-12-09T05:10:59.154Z,87.80
2017-12-09T05:12:01.633Z,87.90
2017-12-09T05:13:04.174Z,87.90
2017-12-09T05:14:06.647Z,87.50
2017-12-09T05:15:09.407Z,87.50
2017-12-09T05:16:11.903Z,87.90
2017-12-09T05:17:14.382Z,87.90
2017-12-09T05:18:17.620Z,87.70
2017-12-09T05:19:20.112Z,87.60
2017-12-09T05:20:23.346Z,87.50
2017-12-09T05:21:26.053Z,87.50
2017-12-09T05:22:28.507Z,87.60
2017-12-09T05:23:30.988Z,87.50
2017-12-09T05:24:34.254Z,87.40
2017-12-09T05:25:36.728Z,87.40
2017-12-09T05:26:39.192Z,87.50
2017-12-09T05:27:41.652Z,87.90
2017-12-09T05:28:44.131Z,87.60
2017-12-09T05:29:46.781Z,87.50
2017-12-09T05:30:49.253Z,87.40
2017-12-09T05:31:51.743Z,87.40
2017-12-09T05:32:54.207Z,87.30
2017-12-09T05:33:56.678Z,87.50
2017-12-09T05:34:59.191Z,87.50
2017-12-09T05:36:01.666Z,87.30
2017-12-09T05:37:04.254Z,87.20
2017-12-09T05:38:06.719Z,87.50
2017-12-09T05:39:09.193Z,87.60
2017-12-09T05:40:11.676Z,87.60
2017-12-09T05:41:14.188Z,87.80
2017-12-09T05:42:16.668Z,87.90
2017-12-09T05:43:19.151Z,87.70
2017-12-09T05:44:21.623Z,87.50
2017-12-09T05:45:24.097Z,88.00
2017-12-09T05:46:27.668Z,88.40
2017-12-09T05:47:30.146Z,88.10
2017-12-09T05:48:32.642Z,88.40
2017-12-09T05:49:35.199Z,88.40
2017-12-09T05:50:37.671Z,88.80
2017-12-09T05:51:40.150Z,88.80
2017-12-09T05:52:42.889Z,89.20
2017-12-09T05:53:46.124Z,89.60
2017-12-09T05:54:48.611Z,89.10
2017-12-09T05:55:51.098Z,89.30
2017-12-09T05:56:53.623Z,89.90
2017-12-09T05:57:56.105Z,90.30
2017-12-09T05:58:58.597Z,90.10
2017-12-09T06:00:01.070Z,90.20
2017-12-09T06:01:04.389Z,90.40
2017-12-09T06:02:06.888Z,90.40
2017-12-09T06:03:09.431Z,90.50
2017-12-09T06:04:11.927Z,90.60
2017-12-09T06:05:14.390Z,90.80
2017-12-09T06:06:16.863Z,91.00
2017-12-09T06:07:19.350Z,91.10
2017-12-09T06:08:22.624Z,91.00
2017-12-09T06:09:25.100Z,91.00
2017-12-09T06:10:28.337Z,91.10
2017-12-09T06:11:30.817Z,91.00
2017-12-09T06:12:33.296Z,91.00
2017-12-09T06:13:35.812Z,91.00
2017-12-09T06:14:38.301Z,90.80
2017-12-09T06:15:40.798Z,90.90
2017-12-09T06:16:43.259Z,91.10
2017-12-09T06:17:45.733Z,91.10
2017-12-09T06:18:48.245Z,91.00
2017-12-09T06:19:50.745Z,91.30
2017-12-09T06:20:53.232Z,91.30
2017-12-09T06:21:56.712Z,91.30
2017-12-09T06:22:59.187Z,91.40
2017-12-09T06:24:02.572Z,91.40
2017-12-09T06:25:05.872Z,91.30
2017-12-09T06:26:08.484Z,91.20
2017-12-09T06:27:11.032Z,91.30
2017-12-09T06:28:13.520Z,91.50
2017-12-09T06:29:16.009Z,91.50
2017-12-09T06:30:18.473Z,91.60
2017-12-09T06:31:21.731Z,91.50
2017-12-09T06:32:24.217Z,91.50
2017-12-09T06:33:26.728Z,91.70
2017-12-09T06:34:29.217Z,91.50
2017-12-09T06:35:31.717Z,91.60
2017-12-09T06:36:34.205Z,91.50
2017-12-09T06:37:37.456Z,91.50
2017-12-09T06:38:39.977Z,91.50
2017-12-09T06:39:42.508Z,91.50
2017-12-09T06:40:44.984Z,91.40
2017-12-09T06:41:48.260Z,91.80
2017-12-09T06:42:51.508Z,91.60
2017-12-09T06:43:53.973Z,91.60
2017-12-09T06:44:56.455Z,91.70
2017-12-09T06:45:59.114Z,91.60
2017-12-09T06:47:01.590Z,91.60
2017-12-09T06:48:04.070Z,91.60
2017-12-09T06:49:07.441Z,91.80
2017-12-09T06:50:09.925Z,91.70
2017-12-09T06:51:13.260Z,91.70
2017-12-09T06:52:15.744Z,91.70
2017-12-09T06:53:18.224Z,91.80
2017-12-09T06:54:20.714Z,91.80
2017-12-09T06:55:23.975Z,91.70
2017-12-09T06:56:27.248Z,91.90
2017-12-09T06:57:29.724Z,91.80
2017-12-09T06:58:32.256Z,91.90
2017-12-09T06:59:34.902Z,92.30
2017-12-09T07:00:37.375Z,92.10
2017-12-09T07:01:41.995Z,92.10
2017-12-09T07:02:44.552Z,92.10
2017-12-09T07:03:47.039Z,92.10
2017-12-09T07:04:49.522Z,92.10
2017-12-09T07:05:52.013Z,92.20
2017-12-09T07:06:55.272Z,92.40
2017-12-09T07:07:58.221Z,92.10
2017-12-09T07:09:00.708Z,92.10
2017-12-09T07:10:03.193Z,92.20
2017-12-09T07:11:06.462Z,92.30
2017-12-09T07:12:08.985Z,92.30
2017-12-09T07:13:11.725Z,92.30
2017-12-09T07:14:14.989Z,92.10
2017-12-09T07:15:18.246Z,92.00
2017-12-09T07:16:20.719Z,91.90
2017-12-09T07:17:23.218Z,91.90
2017-12-09T07:18:26.482Z,91.90
2017-12-09T07:19:28.957Z,91.90
2017-12-09T07:20:32.199Z,92.30
2017-12-09T07:21:34.698Z,92.10
2017-12-09T07:22:37.195Z,92.20
2017-12-09T07:23:39.680Z,92.40
2017-12-09T07:24:42.255Z,92.20
2017-12-09T07:25:44.724Z,92.30
2017-12-09T07:26:47.200Z,92.30
2017-12-09T07:27:49.693Z,92.30
2017-12-09T07:28:52.994Z,92.10
2017-12-09T07:29:56.258Z,92.10
2017-12-09T07:30:59.577Z,92.30
2017-12-09T07:32:02.075Z,92.00
2017-12-09T07:33:04.575Z,92.00
2017-12-09T07:34:07.858Z,92.10
2017-12-09T07:35:11.599Z,92.00
2017-12-09T07:36:14.161Z,92.00
2017-12-09T07:37:16.827Z,92.00
2017-12-09T07:38:19.304Z,91.90
2017-12-09T07:39:24.952Z,92.00
2017-12-09T07:40:27.478Z,92.10
2017-12-09T07:41:30.729Z,92.10
2017-12-09T07:42:33.209Z,92.10
2017-12-09T07:43:36.871Z,92.20
2017-12-09T07:44:39.382Z,91.90
2017-12-09T07:45:42.623Z,92.00
2017-12-09T07:46:45.099Z,92.00
2017-12-09T07:47:48.590Z,92.00
2017-12-09T07:48:51.879Z,91.90
2017-12-09T07:49:55.155Z,91.80
2017-12-09T07:50:57.649Z,91.70
2017-12-09T07:52:00.916Z,91.60
2017-12-09T07:53:03.388Z,91.60
2017-12-09T07:54:06.635Z,91.80
2017-12-09T07:55:09.145Z,91.50
2017-12-09T07:56:12.747Z,91.50
2017-12-09T07:57:15.989Z,91.50
2017-12-09T07:58:18.496Z,91.50
2017-12-09T07:59:21.788Z,91.40
2017-12-09T08:00:24.420Z,91.40
2017-12-09T08:01:26.884Z,91.40
2017-12-09T08:02:32.809Z,91.40
2017-12-09T08:03:35.293Z,91.40
2017-12-09T08:04:37.781Z,91.50
2017-12-09T08:05:41.037Z,91.40
2017-12-09T08:06:43.549Z,91.40
2017-12-09T08:07:46.059Z,91.40
2017-12-09T08:08:48.625Z,91.50
2017-12-09T08:09:51.112Z,91.50
2017-12-09T08:10:54.680Z,91.60
2017-12-09T08:11:57.195Z,91.60
2017-12-09T08:12:59.752Z,91.50
2017-12-09T08:14:03.030Z,91.50
2017-12-09T08:15:07.299Z,91.40
2017-12-09T08:16:10.036Z,91.40
2017-12-09T08:17:12.828Z,91.40
2017-12-09T08:18:15.344Z,91.30
2017-12-09T08:19:18.580Z,91.40
2017-12-09T08:20:21.085Z,91.40
2017-12-09T08:21:23.582Z,91.50
2017-12-09T08:22:27.774Z,91.40
2017-12-09T08:23:31.012Z,91.50
2017-12-09T08:24:33.549Z,91.80
2017-12-09T08:25:36.016Z,91.50
2017-12-09T08:26:38.538Z,91.70
2017-12-09T08:27:41.641Z,91.60
2017-12-09T08:28:44.745Z,91.60
2017-12-09T08:29:47.405Z,91.70
2017-12-09T08:30:49.871Z,91.70
2017-12-09T08:31:52.353Z,91.70
2017-12-09T08:32:55.871Z,91.70
2017-12-09T08:33:58.842Z,91.80
2017-12-09T08:35:01.347Z,91.70
2017-12-09T08:36:03.824Z,91.60
2017-12-09T08:37:06.315Z,91.70
2017-12-09T08:38:08.800Z,91.60
2017-12-09T08:39:11.416Z,91.70
2017-12-09T08:40:13.923Z,91.50
2017-12-09T08:41:16.420Z,91.60
2017-12-09T08:42:19.676Z,91.50
2017-12-09T08:43:22.187Z,91.50
2017-12-09T08:44:24.860Z,91.60
2017-12-09T08:45:27.352Z,91.30
2017-12-09T08:46:30.061Z,91.20
2017-12-09T08:47:32.544Z,91.20
2017-12-09T08:48:35.814Z,91.30
2017-12-09T08:49:39.234Z,91.70
2017-12-09T08:50:41.747Z,91.40
2017-12-09T08:51:44.272Z,91.20
2017-12-09T08:52:46.839Z,91.20
2017-12-09T08:53:49.345Z,91.30
2017-12-09T08:54:51.867Z,91.40
2017-12-09T08:55:54.394Z,91.30
2017-12-09T08:56:57.198Z,91.00
2017-12-09T08:57:59.817Z,91.10
2017-12-09T08:59:03.125Z,91.20
2017-12-09T09:00:06.359Z,91.00
2017-12-09T09:01:08.854Z,91.00
2017-12-09T09:02:12.204Z,90.90
2017-12-09T09:03:14.815Z,91.00
2017-12-09T09:04:17.359Z,90.90
2017-12-09T09:05:19.918Z,91.00
2017-12-09T09:06:22.429Z,90.90
2017-12-09T09:07:25.982Z,90.70
2017-12-09T09:08:28.825Z,90.70
2017-12-09T09:09:31.359Z,90.70
2017-12-09T09:10:34.648Z,90.60
2017-12-09T09:11:37.910Z,90.50
2017-12-09T09:12:40.445Z,90.50
2017-12-09T09:13:43.896Z,90.50
2017-12-09T09:14:46.443Z,90.50
2017-12-09T09:15:49.896Z,90.40
2017-12-09T09:16:52.377Z,90.40
2017-12-09T09:17:54.862Z,90.40
2017-12-09T09:18:58.126Z,90.40
2017-12-09T09:20:01.450Z,90.70
2017-12-09T09:21:03.957Z,90.60
2017-12-09T09:22:06.429Z,90.70
2017-12-09T09:23:09.067Z,90.60
2017-12-09T09:24:12.298Z,90.70
2017-12-09T09:25:15.692Z,90.90
2017-12-09T09:26:18.227Z,90.90
2017-12-09T09:27:20.742Z,90.70
2017-12-09T09:28:23.242Z,90.80
2017-12-09T09:29:25.725Z,90.90
2017-12-09T09:30:28.238Z,91.10
2017-12-09T09:31:31.558Z,91.00
2017-12-09T09:32:34.118Z,91.10
2017-12-09T09:33:38.073Z,90.90
2017-12-09T09:34:40.561Z,90.80
2017-12-09T09:35:43.049Z,90.70
2017-12-09T09:36:45.533Z,90.60
2017-12-09T09:37:49.042Z,90.70
2017-12-09T09:38:51.565Z,90.60
2017-12-09T09:39:54.200Z,90.70
2017-12-09T09:40:57.488Z,90.50
2017-12-09T09:42:00.772Z,90.60
2017-12-09T09:43:04.052Z,91.00
2017-12-09T09:44:07.389Z,90.70
2017-12-09T09:45:10.084Z,90.70
2017-12-09T09:46:12.978Z,90.60
2017-12-09T09:47:16.233Z,90.80
2017-12-09T09:48:18.994Z,90.70
2017-12-09T09:49:21.480Z,90.70
2017-12-09T09:50:26.694Z,90.70
2017-12-09T09:51:29.179Z,90.70
2017-12-09T09:52:33.733Z,91.10
2017-12-09T09:53:36.239Z,90.70
2017-12-09T09:54:38.735Z,90.60
2017-12-09T09:55:41.991Z,90.40
2017-12-09T09:56:44.461Z,90.40
2017-12-09T09:57:46.982Z,90.40
2017-12-09T09:58:50.299Z,90.10
2017-12-09T09:59:52.772Z,90.10
2017-12-09T10:00:55.269Z,90.10
2017-12-09T10:01:58.521Z,89.80
2017-12-09T10:03:01.036Z,89.80
2017-12-09T10:04:03.550Z,89.90
2017-12-09T10:05:06.049Z,89.40
2017-12-09T10:06:09.278Z,89.60
2017-12-09T10:07:12.384Z,89.60
2017-12-09T10:08:14.898Z,89.30
2017-12-09T10:09:17.379Z,88.90
2017-12-09T10:10:19.902Z,89.60
2017-12-09T10:11:23.143Z,89.60
2017-12-09T10:12:25.645Z,89.50
2017-12-09T10:13:30.204Z,89.60
2017-12-09T10:14:32.711Z,89.60
2017-12-09T10:15:36.393Z,89.40
2017-12-09T10:16:38.873Z,89.60
2017-12-09T10:17:42.229Z,89.40
2017-12-09T10:18:44.714Z,89.40
2017-12-09T10:19:47.429Z,89.20
2017-12-09T10:20:50.005Z,89.20
2017-12-09T10:21:52.706Z,88.90
2017-12-09T10:22:55.176Z,88.80
2017-12-09T10:23:57.872Z,88.90
2017-12-09T10:25:01.130Z,89.60
2017-12-09T10:26:03.681Z,89.00
2017-12-09T10:27:06.183Z,88.60
2017-12-09T10:28:09.757Z,88.40
2017-12-09T10:29:13.271Z,88.30
2017-12-09T10:30:16.836Z,88.30
2017-12-09T10:31:19.265Z,88.20
2017-12-09T10:32:21.758Z,88.00
2017-12-09T10:33:24.355Z,88.10
2017-12-09T10:34:27.641Z,88.40
2017-12-09T10:35:30.923Z,88.30
2017-12-09T10:36:34.263Z,88.20
2017-12-09T10:37:36.751Z,88.20
2017-12-09T10:38:39.235Z,88.40
2017-12-09T10:39:42.548Z,88.80
2017-12-09T10:40:45.066Z,88.70
2017-12-09T10:41:47.548Z,88.60
2017-12-09T10:42:50.786Z,89.00
2017-12-09T10:43:53.328Z,88.70
2017-12-09T10:44:55.848Z,88.80
2017-12-09T10:45:58.436Z,88.80
2017-12-09T10:47:01.737Z,89.00
2017-12-09T10:48:04.264Z,89.00
2017-12-09T10:49:06.758Z,88.90
2017-12-09T10:50:10.462Z,89.00
2017-12-09T10:51:13.059Z,89.00
2017-12-09T10:52:15.576Z,89.30
2017-12-09T10:53:18.847Z,89.00
2017-12-09T10:54:21.343Z,89.00
2017-12-09T10:55:23.853Z,89.10
2017-12-09T10:56:26.363Z,88.90
2017-12-09T10:57:29.627Z,89.00
2017-12-09T10:58:32.886Z,88.90
2017-12-09T10:59:35.365Z,88.80
2017-12-09T11:00:37.853Z,89.30
2017-12-09T11:01:40.398Z,89.50
2017-12-09T11:02:43.861Z,89.40
2017-12-09T11:03:47.175Z,89.80
2017-12-09T11:04:49.693Z,89.50
2017-12-09T11:05:52.227Z,89.60
2017-12-09T11:06:55.505Z,90.10
2017-12-09T11:07:58.758Z,90.00
2017-12-09T11:09:01.255Z,90.00
2017-12-09T11:10:04.521Z,89.90
2017-12-09T11:11:07.079Z,89.90
2017-12-09T11:12:09.593Z,89.70
2017-12-09T11:13:12.265Z,89.60
2017-12-09T11:14:14.812Z,89.70
2017-12-09T11:15:17.316Z,89.70
2017-12-09T11:16:19.828Z,89.50
2017-12-09T11:17:22.305Z,89.40
2017-12-09T11:18:25.545Z,89.30
2017-12-09T11:19:28.045Z,89.30
2017-12-09T11:20:30.540Z,89.30
2017-12-09T11:21:33.070Z,90.10
2017-12-09T11:22:35.571Z,89.20
2017-12-09T11:23:38.048Z,90.00
2017-12-09T11:24:40.598Z,89.20
2017-12-09T11:25:43.170Z,89.40
2017-12-09T11:26:45.812Z,89.50
2017-12-09T11:27:49.100Z,89.30
2017-12-09T11:28:53.382Z,89.10
2017-12-09T11:29:55.878Z,89.10
2017-12-09T11:30:59.341Z,88.90
2017-12-09T11:32:03.361Z,89.00
2017-12-09T11:33:06.612Z,88.90
2017-12-09T11:34:09.121Z,88.90
2017-12-09T11:35:12.705Z,88.70
2017-12-09T11:36:16.286Z,89.00
2017-12-09T11:37:20.704Z,89.00
2017-12-09T11:38:23.808Z,88.70
2017-12-09T11:39:28.122Z,88.90
2017-12-09T11:40:30.965Z,88.20
2017-12-09T11:41:35.109Z,87.80
2017-12-09T11:42:37.741Z,88.20
2017-12-09T11:43:41.112Z,88.00
2017-12-09T11:44:43.800Z,88.00
2017-12-09T11:45:47.616Z,88.00
2017-12-09T11:46:50.289Z,88.00
2017-12-09T11:47:54.592Z,88.10
2017-12-09T11:48:58.488Z,88.00
2017-12-09T11:50:01.403Z,87.70
2017-12-09T11:51:04.801Z,88.10
2017-12-09T11:52:07.809Z,88.00
2017-12-09T11:53:10.404Z,87.80
2017-12-09T11:54:14.248Z,87.70
2017-12-09T11:55:16.918Z,87.80
2017-12-09T11:56:19.513Z,87.70
2017-12-09T11:57:22.784Z,88.60
2017-12-09T11:58:26.352Z,87.70
2017-12-09T11:59:29.758Z,87.70
2017-12-09T12:00:33.554Z,87.60
2017-12-09T12:01:36.914Z,87.70
2017-12-09T12:02:40.473Z,87.50
2017-12-09T12:03:43.609Z,87.60
2017-12-09T12:04:46.238Z,87.60
2017-12-09T12:05:49.568Z,86.90
2017-12-09T12:06:52.919Z,87.90
2017-12-09T12:07:55.577Z,87.00
2017-12-09T12:08:58.148Z,87.30
2017-12-09T12:10:00.781Z,87.50
2017-12-09T12:11:03.499Z,87.20
2017-12-09T12:12:06.355Z,87.00
2017-12-09T12:13:10.184Z,87.80
2017-12-09T12:14:13.991Z,88.40
2017-12-09T12:15:17.613Z,88.30
2017-12-09T12:16:20.234Z,88.30
2017-12-09T12:17:23.862Z,88.40
2017-12-09T12:18:26.391Z,88.30
2017-12-09T12:19:28.923Z,88.30
2017-12-09T12:20:31.498Z,88.70
2017-12-09T12:21:34.073Z,88.90
2017-12-09T12:22:36.659Z,89.20
2017-12-09T12:23:41.244Z,89.20
2017-12-09T12:24:43.812Z,89.10
2017-12-09T12:25:46.481Z,88.90
2017-12-09T12:26:49.020Z,88.50
2017-12-09T12:27:51.924Z,88.40
2017-12-09T12:28:55.293Z,88.60
2017-12-09T12:29:57.893Z,88.60
2017-12-09T12:31:00.459Z,88.50
2017-12-09T12:32:05.050Z,88.60
2017-12-09T12:33:09.131Z,88.30
2017-12-09T12:34:12.033Z,88.30
2017-12-09T12:35:15.451Z,88.50
2017-12-09T12:36:20.659Z,88.50
2017-12-09T12:37:26.561Z,88.60
2017-12-09T12:38:31.129Z,88.50
2017-12-09T12:39:33.756Z,88.70
2017-12-09T12:40:38.684Z,88.90
2017-12-09T12:41:41.406Z,89.00
2017-12-09T12:42:43.975Z,89.10
2017-12-09T12:43:46.576Z,88.90
2017-12-09T12:44:50.904Z,89.20
2017-12-09T12:45:53.590Z,89.20
2017-12-09T12:46:56.272Z,89.50
2017-12-09T12:48:00.074Z,89.30
2017-12-09T12:49:03.427Z,89.70
2017-12-09T12:50:05.995Z,89.70
2017-12-09T12:51:08.634Z,89.50
2017-12-09T12:52:12.541Z,89.20
2017-12-09T12:53:15.335Z,89.20
2017-12-09T12:54:18.600Z,89.20
2017-12-09T12:55:21.655Z,89.00
2017-12-09T12:56:26.325Z,88.80
2017-12-09T12:57:29.068Z,89.00
2017-12-09T12:58:31.832Z,89.00
2017-12-09T12:59:34.456Z,88.90
2017-12-09T13:00:38.054Z,89.10
2017-12-09T13:01:40.774Z,89.00
2017-12-09T13:02:43.480Z,89.20
2017-12-09T13:03:47.224Z,88.90
2017-12-09T13:04:49.818Z,88.80
2017-12-09T13:05:53.734Z,88.70
2017-12-09T13:06:56.727Z,88.70
2017-12-09T13:08:00.493Z,88.60
2017-12-09T13:09:03.554Z,88.70
2017-12-09T13:10:08.192Z,88.40
2017-12-09T13:11:11.877Z,88.80
2017-12-09T13:12:15.564Z,88.70
2017-12-09T13:13:18.125Z,89.00
2017-12-09T13:14:20.642Z,88.90
2017-12-09T13:15:23.170Z,89.00
2017-12-09T13:16:25.675Z,88.90
2017-12-09T13:17:28.210Z,89.20
2017-12-09T13:18:32.705Z,89.30
2017-12-09T13:19:35.211Z,89.00
2017-12-09T13:20:41.644Z,89.20
2017-12-09T13:21:44.250Z,89.60
2017-12-09T13:22:50.949Z,88.90
2017-12-09T13:23:53.476Z,88.80
2017-12-09T13:24:56.148Z,88.80
2017-12-09T13:25:59.492Z,89.40
2017-12-09T13:27:02.013Z,89.30
2017-12-09T13:28:24.051Z,89.60
2017-12-09T13:29:26.642Z,89.60
2017-12-09T13:30:29.157Z,89.40